静岡空港の過去48時間の天気

静岡空港 (Shizuoka)

現在時刻: 1/23 13:18 JST (1/23 04:18 UTC) 以下の時間は現地時間です。

過去48時間のMETAR気象情報
時間 風向 風速(m/s) 視程 気温(℃) 湿度(%) 気圧(hPa) 天気現象
23 13:00 西南西 10 10km以上 9 57 1005
23 12:00 西 9 10km以上 8 81 1006
23 11:00 西 6 10km以上 5 100 1008 弱いしゅう雨
23 10:00 西 7 10km以上 5 93 1008 弱いしゅう雨
23 09:00 西南西 7 10km以上 4 100 1009
23 08:00 西 8 10km以上 3 100 1008
23 07:30 西南西 6 10km以上 2 100 1008
22 21:00 西 4 10km以上 5 100 1006 弱い雨
22 20:00 西北西 3 10km以上 5 100 1007 弱い雨
22 19:00 3 10km以上 4 100 1006 弱い雨
22 18:00 北北東 3 10km以上 4 100 1006 弱い雨
22 17:00 北東 6 10km以上 3 100 1007 弱い雨
22 16:00 北東 5 10km以上 3 100 1007 弱い雨
22 15:00 北東 5 10km以上 4 100 1008 弱い雨
22 14:00 北北東 4 10km以上 5 100 1010 弱い雨
22 13:00 北東 6 10km以上 5 100 1010 弱い雨
22 12:00 北東 6 10km以上 7 70 1012 弱い雨
22 11:00 北東 5 10km以上 7 61 1014
22 10:00 北東 4 10km以上 7 57 1015
22 09:00 北北東 2 10km以上 6 61 1016
22 08:00 北北東 2 10km以上 5 65 1016
22 07:30 北北東 2 10km以上 4 75 1017
RJNS 230400Z 25019G32KT 220V290 9999 FEW020 09/01 Q1005
RJNS 230300Z 26017KT 230V290 9999 FEW005 SCT020 08/05 Q1006
RJNS 230200Z 26012KT 9999 -SHRA FEW003 SCT020 BKN035 05/05 Q1008
RJNS 230100Z 26013KT 9999 -SHRA FEW002 SCT030 BKN040 05/04 Q1008
RJNS 230000Z 25014KT 9999 FEW002 SCT030 BKN050 04/04 Q1009
RJNS 222300Z 26015KT 9999 FEW002 SCT070 03/03 Q1008
RJNS 222230Z 25012KT 9999 FEW000 02/02 Q1008
RJNS 221200Z 27008KT 9999 -RA FEW007 SCT030 BKN040 05/05 Q1006
RJNS 221100Z 30006KT 9999 -RA FEW005 SCT025 BKN035 05/05 Q1007
RJNS 221000Z 01006KT 320V070 9999 -RA FEW002 SCT025 BKN035 04/04 Q1006
RJNS 220900Z 03006G17KT 310V080 9999 -RA FEW000 BKN025 BKN040 04/04 Q1006
RJNS 220800Z 05011G24KT 330V090 9999 -RA FEW000 BKN015 BKN025 03/03 Q1007
RJNS 220700Z 04010G21KT 360V090 9999 -RA FEW000 SCT010 BKN015 03/03 Q1007
RJNS 220600Z 04010KT 360V100 9999 -RA FEW000 SCT010 BKN015 04/04 Q1008
RJNS 220500Z 03008KT 330V090 9999 -RA FEW000 BKN015 BKN035 05/05 Q1010
RJNS 220400Z 04012G25KT 350V090 9999 -RA FEW000 SCT020 BKN035 05/05 Q1010
RJNS 220300Z 05011G21KT 340V090 9999 -RA FEW020 BKN035 07/02 Q1012
RJNS 220200Z 04009G19KT 360V100 9999 FEW020 BKN035 BKN120 07/00 Q1014
RJNS 220100Z 05007G18KT 360V100 9999 FEW020 SCT100 BKN120 07/M01 Q1015
RJNS 220000Z 03004KT 340V090 9999 FEW020 SCT110 BKN130 06/M01 Q1016
RJNS 212300Z 02004KT 330V090 9999 FEW020 SCT140 BKN160 05/M01 Q1016
RJNS 212230Z 02004KT 340V060 9999 FEW020 SCT160 BKN/// 04/M00 Q1017